Авиационная погода в Вадсё

Регион: 
Погода METAR: 
ENVD 161750Z 10015KT 4000 BR BKN005 02/01 Q1012
Время наблюдения
2021-05-16T17:50:00Z
Температура C
2.0
Точка росы
1.0
Направление ветра
100
Скорость ветра (узлы)
15
Метео видимость
2.49
Явления погоды
BR
Условия полета
IFR